»·PEaware :: N5MJ KLAS-KMRY

N5MJ :: KLAS-KMRY

FLIGHT INFORMATION

Flight Status: Arrived
Operator: Privately registered:
United States
More flights under this callsign
Pilot: Josh T. (20631)
Aircraft: DASSAULT AVIATION FALCON 50
(FA50)
More flights by this aircraft type
Origin: KLAS McCarran Intl
United States
Destination: KMRY Monterey Peninsula
United States
More flights between these airports :: More routes between these airports
Route: SHEAD1 KENNO BIH PXN SNS
File this flight plan on PilotEdge
Remarks:
Altitude:
(Current/Filed)
38,000ft
Speed:
(Current/Filed)
475kts
Departed: 22-Mar-20 01:50 PM
Arrived: 22-Mar-20 02:58 PM
Distance/Time
Traveled:
325nm/1:08
Distance/Time
To Go:
Arrived

Flight Plot

Page will automatically refresh every two minutes.

Flight plan parsing failed; only flown route is shown


Map Options




Map Legend


Flown Route
Filed Route
Departure Airport
Arrival Airport
Navaid (VOR, NDB)
Fix

Horizontal Profiles

Position Reports

Time Latitude Longitude Heading Altitude Ground
Speed
22-Mar-20 13:33 36.080688 -115.172198 89 2184ft 0kts
22-Mar-20 13:34 36.080688 -115.172198 89 2184ft 0kts
22-Mar-20 13:35 36.080688 -115.172198 89 2184ft 0kts
22-Mar-20 13:36 36.080688 -115.172198 89 2184ft 0kts
22-Mar-20 13:37 36.080688 -115.172198 89 2184ft 0kts
22-Mar-20 13:38 36.080688 -115.172198 89 2184ft 0kts
22-Mar-20 13:39 36.080688 -115.172198 89 2184ft 0kts
22-Mar-20 13:40 36.080688 -115.172198 89 2184ft 0kts
22-Mar-20 13:41 36.080700 -115.172054 73 2184ft 3kts
22-Mar-20 13:42 36.081505 -115.170197 97 2184ft 10kts
22-Mar-20 13:43 36.081474 -115.169796 92 2184ft 5kts
22-Mar-20 13:44 36.079414 -115.170467 204 2184ft 16kts
22-Mar-20 13:45 36.078025 -115.170130 89 2184ft 0kts
22-Mar-20 13:46 36.078025 -115.170128 89 2184ft 0kts
22-Mar-20 13:47 36.078295 -115.168709 24 2184ft 0kts
22-Mar-20 13:48 36.078295 -115.168709 24 2184ft 0kts
22-Mar-20 13:49 36.080696 -115.167333 25 2184ft 69kts
22-Mar-20 13:50 36.115378 -115.159994 324 3350ft 163kts
22-Mar-20 13:51 36.114996 -115.226178 258 5282ft 235kts
22-Mar-20 13:52 36.085138 -115.301061 208 8613ft 258kts
22-Mar-20 13:53 36.011725 -115.338940 203 9005ft 300kts
22-Mar-20 13:54 35.937728 -115.378242 202 10578ft 294kts
22-Mar-20 13:55 35.886960 -115.450782 261 14128ft 297kts
22-Mar-20 13:56 35.888938 -115.552936 267 17236ft 298kts
22-Mar-20 13:57 35.890590 -115.655004 266 20050ft 296kts
22-Mar-20 13:58 35.892321 -115.755603 265 22683ft 291kts
22-Mar-20 13:59 35.893938 -115.854599 264 24922ft 287kts
22-Mar-20 14:00 35.896196 -115.952683 271 26776ft 291kts
22-Mar-20 14:01 35.953028 -116.036091 301 28280ft 334kts
22-Mar-20 14:02 36.021127 -116.115348 300 29654ft 338kts
22-Mar-20 14:03 36.090341 -116.195201 300 30995ft 341kts
22-Mar-20 14:04 36.159779 -116.275494 300 32165ft 342kts
22-Mar-20 14:05 36.229412 -116.356216 299 33171ft 344kts
22-Mar-20 14:06 36.299532 -116.437718 299 34029ft 346kts
22-Mar-20 14:07 36.370110 -116.519998 299 34713ft 350kts
22-Mar-20 14:08 36.441493 -116.603395 300 35314ft 354kts
22-Mar-20 14:09 36.513389 -116.687600 300 35828ft 357kts
22-Mar-20 14:10 36.591276 -116.768221 312 36262ft 387kts
22-Mar-20 14:11 36.683060 -116.838264 311 36654ft 388kts
22-Mar-20 14:12 36.775567 -116.908816 312 37005ft 392kts
22-Mar-20 14:13 36.868848 -116.980006 312 37320ft 395kts
22-Mar-20 14:14 36.962717 -117.051818 312 37704ft 395kts
22-Mar-20 14:15 37.056184 -117.123551 312 38142ft 393kts
22-Mar-20 14:16 37.150507 -117.196285 313 38155ft 402kts
22-Mar-20 14:17 37.246965 -117.270769 313 38154ft 410kts
22-Mar-20 14:18 37.307912 -117.369633 269 38157ft 346kts
22-Mar-20 14:19 37.313435 -117.490822 267 38150ft 351kts
22-Mar-20 14:20 37.321814 -117.614053 268 38144ft 357kts
22-Mar-20 14:21 37.331286 -117.739219 268 38134ft 362kts
22-Mar-20 14:22 37.340805 -117.866106 268 38131ft 366kts
22-Mar-20 14:23 37.350282 -117.994446 268 38127ft 370kts
22-Mar-20 14:24 37.359673 -118.123632 268 38124ft 373kts
22-Mar-20 14:25 37.369042 -118.254456 268 38122ft 376kts
22-Mar-20 14:26 37.372248 -118.384516 251 38122ft 366kts
22-Mar-20 14:27 37.340424 -118.506028 249 38118ft 366kts
22-Mar-20 14:28 37.308393 -118.627457 249 38118ft 367kts
22-Mar-20 14:29 37.276052 -118.749480 249 38127ft 367kts
22-Mar-20 14:30 37.243630 -118.871246 249 38152ft 368kts
22-Mar-20 14:31 37.211000 -118.993195 249 38156ft 369kts
22-Mar-20 14:32 37.178183 -119.115268 249 38151ft 370kts
22-Mar-20 14:33 37.145118 -119.237699 249 38147ft 372kts
22-Mar-20 14:34 37.111771 -119.360584 249 38142ft 373kts
22-Mar-20 14:35 37.078223 -119.483638 249 38139ft 374kts
22-Mar-20 14:36 37.044425 -119.607022 249 38135ft 375kts
22-Mar-20 14:37 37.010452 -119.730470 249 38135ft 375kts
22-Mar-20 14:38 36.976423 -119.853550 249 38135ft 374kts
22-Mar-20 14:39 36.942376 -119.976113 249 37943ft 377kts
22-Mar-20 14:41 36.906349 -120.105096 248 36026ft 399kts
22-Mar-20 14:42 36.870724 -120.232397 247 33651ft 380kts
22-Mar-20 14:43 36.835931 -120.355778 247 31170ft 378kts
22-Mar-20 14:44 36.800454 -120.480971 247 28680ft 388kts
22-Mar-20 14:45 36.763627 -120.610380 248 26220ft 404kts
22-Mar-20 14:46 36.724996 -120.745656 249 23922ft 426kts
22-Mar-20 14:47 36.708752 -120.896154 263 21556ft 452kts
22-Mar-20 14:48 36.699174 -121.050896 263 19061ft 437kts
22-Mar-20 14:49 36.689821 -121.200757 263 16565ft 432kts
22-Mar-20 14:50 36.680394 -121.349197 263 14082ft 425kts
22-Mar-20 14:51 36.671190 -121.492004 263 11575ft 398kts
22-Mar-20 14:52 36.660042 -121.615124 245 9091ft 271kts
22-Mar-20 14:53 36.630894 -121.705421 244 6633ft 286kts
22-Mar-20 14:54 36.595573 -121.779211 179 4113ft 184kts
22-Mar-20 14:55 36.597106 -121.748160 352 3048ft 179kts
22-Mar-20 14:56 36.597733 -121.797605 216 1868ft 155kts
22-Mar-20 14:57 36.583664 -121.834572 293 233ft 126kts
22-Mar-20 14:58 36.589813 -121.853962 253 208ft 10kts
22-Mar-20 14:58 36.589138 -121.857257 255 208ft 11kts
22-Mar-20 15:00 36.589375 -121.857879 342 208ft 0kts
22-Mar-20 15:01 36.589375 -121.857879 342 208ft 0kts

Navigation Log

Ident Type
Flight plan parsing failed, navigation log unavailable